Aérodrome :
LOGIN :

S'inscrire | Disclaimer

   EN    FR    IT 

 










Légende :    VFR   VFR Marginal   IFR   IFR Intensif   IFR Très Intensif
Visi : 
Plafond : 
>= 8 km
>= 3000ft
5 à 8 km
1000 à 3000 ft
1500m à 5 km
500 à 1000 ft
800 à 1500m
200 à 500 ft
< 800m
< 200 ft
Symboles :   Orages  Brouillard  Fortes neiges  Fortes précipitations  Vent > 20 kt
SIGMETs :   Divers  Orages  Givrage  Turbulence  Onde Orograph.  Cendres Volcan.







- Altitude de l'aérodrome : 392 ft
- Code IATA : CDG
- Voir les cartes d'approche


LFPG - Paris-Aeroport Charles De Gaulle

DERNIER METAR :
  • 201430Z 24003KT 190V290 9999 FEW041 SCT056 17/08 Q1021 NOSIG

METARs EXPIRÉS :
  • 201400Z 33004KT 290V350 9999 FEW043 SCT055 17/08 Q1021 NOSIG
  • 201330Z 30003KT 270V330 9999 FEW043 SCT059 17/08 Q1022 NOSIG
  • 201300Z 28005KT 9999 SCT049 17/09 Q1022 NOSIG
  • 201224Z 25006G18KT 200V330 9999 SCT049 17/08 Q1022 NOSIG
  • 201200Z 22006G17KT 180V290 9999 SCT036 17/08 Q1022 NOSIG
  • 201130Z 21004KT 100V270 9999 FEW035 17/09 Q1022 NOSIG

TAF TAF LFPG
Valide du 20 à 12h jusqu'au 21 à 18h UTC


201100Z 2012/2118 22005KT 9999 SCT030
BECMG 2020/2022 13005KT CAVOK TX21/2115Z TN08/2105Z
ATIS : +33 1 48 62 10 92
Pas de NOTAMs connus pour ce terrain.



MET'MAP, la Météo Aéronautique d'un coup d'oeil ! - Copyright ORBIFLY Décembre 2007 - Disclaimer

ORBIFLY MET'MAP TEAM :

Programmation & Développement : Alexandra Zaïnal
Conception & Développement : Baudouin d'Aumeries
Co-Programmation & Développement : Marc-Olivier Méhu
Soutien technique & logistique : Manuel Goepfert

Contact : metmap@orbifly.com




SOURCES & CREDITS :

   NOAA